Druid Hills, Georgia
Current Conditions -  °F | °C
As of 8:53 AM on Monday 26 Jan 2015 (Local Time) from KPDK Reporting Station
Overcast Overcast  
Wind Chill:   Ceiling: 2100
Heat Index:   Visibility: 10mi
Dew Point:   Wind: 8mph
Humidity: 86%   Direction: 280°W
Pressure: 29.78"   Gusts: NA
Location:  33.7788°N, 84.3361°W
Report Text: KPDK 261353Z 28007KT 10SM OVC021 06/04 A2978 RMK AO2 SLP090 T00610039
Loading
Personal Weather Stations






























Interactive Weather Map New forecast layout! Learn more

10-Day Weather Forecast

Advertisements
Track Severe Weather on mobile